createdAt,value
2023-01-20T00:02:20.902Z,85.67
2023-01-20T00:05:09.068Z,77.32
2023-01-20T00:07:56.765Z,98.92
2023-01-20T00:10:44.246Z,64.07
2023-01-20T00:13:31.600Z,68.62
2023-01-20T00:16:18.773Z,60.67
2023-01-20T00:19:07.291Z,82.62
2023-01-20T00:21:55.448Z,66.02
2023-01-20T00:24:42.752Z,69.47
2023-01-20T00:27:30.425Z,91.65
2023-01-20T00:30:18.203Z,76.92
2023-01-20T00:33:06.344Z,64.85
2023-01-20T00:35:53.707Z,87.17
2023-01-20T00:38:41.652Z,69.20
2023-01-20T00:41:29.158Z,74.62
2023-01-20T00:44:16.786Z,67.53
2023-01-20T00:47:04.145Z,74.58
2023-01-20T00:49:51.233Z,73.78
2023-01-20T00:52:38.424Z,81.67
2023-01-20T00:55:25.749Z,68.22
2023-01-20T00:58:13.722Z,67.37
2023-01-20T01:01:01.470Z,80.97
2023-01-20T01:03:48.552Z,61.98
2023-01-20T01:06:35.704Z,75.62
2023-01-20T01:09:22.919Z,163.20
2023-01-20T01:12:10.449Z,110.45
2023-01-20T01:14:57.977Z,201.73
2023-01-20T01:17:45.625Z,200.07
2023-01-20T01:20:32.599Z,109.95
2023-01-20T01:23:19.692Z,115.08
2023-01-20T01:26:07.297Z,238.87
2023-01-20T01:28:54.806Z,318.33
2023-01-20T01:31:42.230Z,173.95
2023-01-20T01:34:30.413Z,122.15
2023-01-20T01:37:17.802Z,146.70
2023-01-20T01:40:05.513Z,157.90
2023-01-20T01:42:52.888Z,255.07
2023-01-20T01:45:40.425Z,205.90
2023-01-20T01:48:31.122Z,199.75
2023-01-20T01:51:29.944Z,233.45
2023-01-20T01:54:20.464Z,197.43
2023-01-20T01:57:09.325Z,241.30
2023-01-20T01:59:56.663Z,271.70
2023-01-20T02:02:46.320Z,254.38
2023-01-20T02:05:33.827Z,232.35
2023-01-20T02:08:21.732Z,212.12
2023-01-20T02:11:09.390Z,230.90
2023-01-20T02:13:56.913Z,199.95
2023-01-20T02:16:59.109Z,167.60
2023-01-20T02:19:51.907Z,153.25
2023-01-20T02:22:48.169Z,119.80
2023-01-20T02:26:04.603Z,141.27
2023-01-20T02:29:23.023Z,130.32
2023-01-20T02:32:21.700Z,105.60
2023-01-20T02:35:15.166Z,103.67
2023-01-20T02:38:17.237Z,89.87
2023-01-20T02:41:16.348Z,75.80
2023-01-20T02:44:21.173Z,86.63
2023-01-20T02:47:17.053Z,86.17
2023-01-20T02:50:10.129Z,95.30
2023-01-20T02:53:00.447Z,109.17
2023-01-20T02:55:52.941Z,101.95
2023-01-20T02:58:46.371Z,106.90
2023-01-20T03:01:48.016Z,117.42
2023-01-20T03:04:41.164Z,114.77
2023-01-20T03:07:31.351Z,97.88
2023-01-20T03:10:22.155Z,84.50
2023-01-20T03:13:18.382Z,101.20
2023-01-20T03:16:11.247Z,80.83
2023-01-20T03:18:58.753Z,96.08
2023-01-20T03:21:45.955Z,96.90
2023-01-20T03:24:36.180Z,98.22
2023-01-20T03:27:23.411Z,98.72
2023-01-20T03:30:15.171Z,96.10
2023-01-20T03:33:03.814Z,91.92
2023-01-20T03:35:51.420Z,91.15
2023-01-20T03:38:38.762Z,84.28
2023-01-20T03:41:28.963Z,84.05
2023-01-20T03:44:41.426Z,89.28
2023-01-20T03:47:51.165Z,82.92
2023-01-20T03:50:56.233Z,97.17
2023-01-20T03:53:49.640Z,112.05
2023-01-20T03:56:42.612Z,121.80
2023-01-20T03:59:31.267Z,99.25
2023-01-20T04:02:18.979Z,114.08
2023-01-20T04:05:08.034Z,112.00
2023-01-20T04:07:58.495Z,100.65
2023-01-20T04:10:48.662Z,119.02
2023-01-20T04:13:36.465Z,110.32
2023-01-20T04:16:25.887Z,109.60
2023-01-20T04:19:12.898Z,106.03
2023-01-20T04:22:19.751Z,128.12
2023-01-20T04:25:16.025Z,138.12
2023-01-20T04:28:03.441Z,125.10
2023-01-20T04:30:51.104Z,117.20
2023-01-20T04:33:39.362Z,114.50
2023-01-20T04:36:27.029Z,131.05
2023-01-20T04:39:14.118Z,116.47
2023-01-20T04:42:03.876Z,123.47
2023-01-20T04:44:50.996Z,106.35
2023-01-20T04:47:38.348Z,118.65
2023-01-20T04:50:25.785Z,120.70
2023-01-20T04:53:16.186Z,86.80
2023-01-20T04:56:03.632Z,97.90
2023-01-20T04:58:51.249Z,86.47
2023-01-20T05:01:38.649Z,99.00
2023-01-20T05:04:26.006Z,94.35
2023-01-20T05:07:14.000Z,105.32
2023-01-20T05:10:01.715Z,84.72
2023-01-20T05:12:50.499Z,94.58
2023-01-20T05:15:38.319Z,85.97
2023-01-20T05:18:25.380Z,100.65
2023-01-20T05:21:12.532Z,78.90
2023-01-20T05:23:59.946Z,79.25
2023-01-20T05:26:47.252Z,73.12
2023-01-20T05:29:34.763Z,79.92
2023-01-20T05:32:22.221Z,71.97
2023-01-20T05:35:10.033Z,75.92
2023-01-20T05:37:57.230Z,58.15
2023-01-20T05:40:44.882Z,59.27
2023-01-20T05:43:32.161Z,73.57
2023-01-20T05:46:19.603Z,70.92
2023-01-20T05:49:07.035Z,81.10
2023-01-20T05:51:54.242Z,88.20
2023-01-20T05:54:41.615Z,76.82
2023-01-20T05:57:28.978Z,63.87
2023-01-20T06:00:18.357Z,56.25
2023-01-20T06:03:05.949Z,50.80
2023-01-20T06:05:53.215Z,45.80
2023-01-20T06:08:40.601Z,42.53
2023-01-20T06:11:28.140Z,48.85
2023-01-20T06:14:15.646Z,49.27
2023-01-20T06:17:04.550Z,56.60
2023-01-20T06:19:51.848Z,70.30
2023-01-20T06:22:40.737Z,68.62
2023-01-20T06:25:30.449Z,71.77
2023-01-20T06:28:17.981Z,89.13
2023-01-20T06:31:07.887Z,89.00
2023-01-20T06:33:56.185Z,69.67
2023-01-20T06:36:43.834Z,66.28
2023-01-20T06:39:31.143Z,72.82
2023-01-20T06:42:18.150Z,59.83
2023-01-20T06:45:05.960Z,60.45
2023-01-20T06:47:53.024Z,65.70
2023-01-20T06:50:40.450Z,66.50
2023-01-20T06:53:27.766Z,65.20
2023-01-20T06:56:16.393Z,71.42
2023-01-20T06:59:03.540Z,71.53
2023-01-20T07:01:51.041Z,73.92
2023-01-20T07:04:38.566Z,74.40
2023-01-20T07:07:25.610Z,75.95
2023-01-20T07:10:13.837Z,80.87
2023-01-20T07:13:01.002Z,73.78
2023-01-20T07:15:48.710Z,78.05
2023-01-20T07:18:35.705Z,71.30
2023-01-20T07:21:26.127Z,82.85
2023-01-20T07:24:12.325Z,76.28
2023-01-20T07:26:59.729Z,62.27
2023-01-20T07:29:46.780Z,63.13
2023-01-20T07:32:34.042Z,70.92
2023-01-20T07:35:21.254Z,85.87
2023-01-20T07:38:08.674Z,69.58
2023-01-20T07:41:02.515Z,70.10
2023-01-20T07:43:52.102Z,63.42
2023-01-20T07:46:39.255Z,62.98
2023-01-20T07:49:26.954Z,63.38
2023-01-20T07:52:14.392Z,69.92
2023-01-20T07:55:03.615Z,65.57
2023-01-20T07:57:50.853Z,80.47
2023-01-20T08:00:38.149Z,91.57
2023-01-20T08:03:27.364Z,65.75
2023-01-20T08:06:17.391Z,66.15
2023-01-20T08:09:04.903Z,64.30
2023-01-20T08:11:51.963Z,68.95
2023-01-20T08:14:39.456Z,70.95
2023-01-20T08:17:26.750Z,76.37
2023-01-20T08:20:14.100Z,71.47
2023-01-20T08:23:01.572Z,76.22
2023-01-20T08:25:48.764Z,71.75
2023-01-20T08:28:37.371Z,71.97
2023-01-20T08:31:29.608Z,74.77
2023-01-20T08:34:19.494Z,71.15
2023-01-20T08:37:06.609Z,84.17
2023-01-20T08:39:54.266Z,65.50
2023-01-20T08:42:41.564Z,66.37
2023-01-20T08:45:28.639Z,62.85
2023-01-20T08:48:18.026Z,59.00
2023-01-20T08:51:07.913Z,55.95
2023-01-20T08:53:55.427Z,62.45
2023-01-20T08:56:42.681Z,50.58
2023-01-20T08:59:29.553Z,63.52
2023-01-20T09:02:16.672Z,64.55
2023-01-20T09:05:05.422Z,53.05
2023-01-20T09:07:52.430Z,46.80
2023-01-20T09:10:39.808Z,55.20
2023-01-20T09:13:26.978Z,48.05
2023-01-20T09:16:17.342Z,49.58
2023-01-20T09:19:04.610Z,51.37
2023-01-20T09:21:52.270Z,56.42
2023-01-20T09:24:40.243Z,51.20
2023-01-20T09:27:27.468Z,59.98
2023-01-20T09:30:16.815Z,59.95
2023-01-20T09:33:04.275Z,63.28
2023-01-20T09:35:59.710Z,60.83
2023-01-20T09:39:05.335Z,47.55
2023-01-20T09:42:03.581Z,58.92
2023-01-20T09:44:59.646Z,50.63
2023-01-20T09:47:48.746Z,50.23
2023-01-20T09:51:12.314Z,62.20
2023-01-20T09:54:05.431Z,46.10
2023-01-20T09:56:55.498Z,49.70
2023-01-20T09:59:45.649Z,58.48
2023-01-20T10:02:35.687Z,52.17
2023-01-20T10:05:25.942Z,44.20
2023-01-20T10:08:16.190Z,46.25
2023-01-20T10:11:06.402Z,53.52
2023-01-20T10:14:08.558Z,47.60
2023-01-20T10:17:11.496Z,63.50
2023-01-20T10:20:07.743Z,57.90
2023-01-20T10:23:04.340Z,56.33
2023-01-20T10:25:54.950Z,54.67
2023-01-20T10:28:47.711Z,52.25
2023-01-20T10:31:38.033Z,60.50
2023-01-20T10:34:28.513Z,56.28
2023-01-20T10:37:15.947Z,55.63
2023-01-20T10:40:31.590Z,56.05
2023-01-20T10:43:21.570Z,53.52
2023-01-20T10:46:18.076Z,54.80
2023-01-20T10:49:11.352Z,58.25
2023-01-20T10:52:22.531Z,58.05
2023-01-20T10:55:30.739Z,59.00
2023-01-20T10:58:33.191Z,60.17
2023-01-20T11:01:21.579Z,65.45
2023-01-20T11:04:12.131Z,70.57
2023-01-20T11:07:03.201Z,65.05
2023-01-20T11:09:50.849Z,59.27
2023-01-20T11:12:41.262Z,63.33
2023-01-20T11:15:34.415Z,63.50
2023-01-20T11:18:27.988Z,68.62
2023-01-20T11:21:15.176Z,73.55
2023-01-20T11:24:02.477Z,74.87
2023-01-20T11:26:49.985Z,67.55
2023-01-20T11:29:43.609Z,61.68
2023-01-20T11:32:34.626Z,53.38
2023-01-20T11:35:26.414Z,62.05
2023-01-20T11:38:25.486Z,58.80
2023-01-20T11:41:29.972Z,55.75
2023-01-20T11:44:20.553Z,59.98
2023-01-20T11:47:25.318Z,64.30
2023-01-20T11:50:27.411Z,59.27
2023-01-20T11:53:21.042Z,60.10
2023-01-20T11:56:24.696Z,52.38
2023-01-20T11:59:27.214Z,57.03
2023-01-20T12:02:17.987Z,67.62
2023-01-20T12:05:25.136Z,71.82
2023-01-20T12:08:15.221Z,64.07
2023-01-20T12:11:06.616Z,66.10
2023-01-20T12:14:14.539Z,54.63
2023-01-20T12:17:24.289Z,63.33
2023-01-20T12:20:14.750Z,65.67
2023-01-20T12:23:21.762Z,61.85
2023-01-20T12:26:10.780Z,61.85
2023-01-20T12:29:20.266Z,63.50
2023-01-20T12:32:07.596Z,51.88
2023-01-20T12:34:54.828Z,57.85
2023-01-20T12:37:45.289Z,53.25
2023-01-20T12:40:50.057Z,49.85
2023-01-20T12:43:46.083Z,52.50
2023-01-20T12:46:41.803Z,54.55
2023-01-20T12:49:33.234Z,51.73
2023-01-20T12:52:26.679Z,54.48
2023-01-20T12:55:17.137Z,47.80
2023-01-20T12:58:13.365Z,48.23
2023-01-20T13:01:19.963Z,51.37
2023-01-20T13:04:36.046Z,46.35
2023-01-20T13:07:32.217Z,45.78
2023-01-20T13:10:28.573Z,41.83
2023-01-20T13:13:27.452Z,39.67
2023-01-20T13:16:23.472Z,34.18
2023-01-20T13:19:19.485Z,38.17
2023-01-20T13:22:12.504Z,30.40
2023-01-20T13:25:03.244Z,32.53
2023-01-20T13:27:51.589Z,29.65
2023-01-20T13:30:46.960Z,32.48
2023-01-20T13:33:42.514Z,31.20
2023-01-20T13:36:30.009Z,34.98
2023-01-20T13:39:40.545Z,34.23
2023-01-20T13:42:35.809Z,29.67
2023-01-20T13:45:24.538Z,30.32
2023-01-20T13:48:14.897Z,31.82
2023-01-20T13:51:31.055Z,32.33
2023-01-20T13:54:31.941Z,30.80
2023-01-20T13:57:28.317Z,31.00
2023-01-20T14:00:16.457Z,30.23
2023-01-20T14:03:06.589Z,29.80
2023-01-20T14:06:06.940Z,33.35
2023-01-20T14:08:53.802Z,31.52
2023-01-20T14:11:44.531Z,35.78
2023-01-20T14:14:31.811Z,31.95
2023-01-20T14:17:22.427Z,30.65
2023-01-20T14:20:19.103Z,32.13
2023-01-20T14:23:24.696Z,38.33
2023-01-20T14:26:15.667Z,29.52
2023-01-20T14:29:03.601Z,35.40
2023-01-20T14:31:54.295Z,35.15
2023-01-20T14:34:43.986Z,37.63
2023-01-20T14:37:34.133Z,33.23
2023-01-20T14:40:32.345Z,35.95
2023-01-20T14:43:22.670Z,32.90
2023-01-20T14:46:10.318Z,29.60
2023-01-20T14:48:58.162Z,32.50
2023-01-20T14:51:46.928Z,32.95
2023-01-20T14:54:50.238Z,37.75
2023-01-20T14:57:43.447Z,38.73
2023-01-20T15:00:35.327Z,40.58
2023-01-20T15:03:31.102Z,37.00
2023-01-20T15:06:21.727Z,38.60
2023-01-20T15:09:28.937Z,40.98
2023-01-20T15:12:42.584Z,41.95
2023-01-20T15:15:32.187Z,40.75
2023-01-20T15:18:23.136Z,52.60
2023-01-20T15:21:21.866Z,48.95
2023-01-20T15:24:24.698Z,54.00
2023-01-20T15:27:27.529Z,49.83
2023-01-20T15:30:21.333Z,58.83
2023-01-20T15:33:09.911Z,52.85
2023-01-20T15:35:59.379Z,46.85
2023-01-20T15:38:46.443Z,47.48
2023-01-20T15:41:33.713Z,53.65
2023-01-20T15:44:21.421Z,50.30
2023-01-20T15:47:24.701Z,51.13
2023-01-20T15:50:18.535Z,59.27
2023-01-20T15:53:06.373Z,52.48
2023-01-20T15:55:53.739Z,45.08
2023-01-20T15:58:40.921Z,45.90
2023-01-20T16:01:29.132Z,56.58
2023-01-20T16:04:16.511Z,53.02
2023-01-20T16:07:03.829Z,49.40
2023-01-20T16:09:51.323Z,51.75
2023-01-20T16:12:38.519Z,51.45
2023-01-20T16:15:25.588Z,49.83
2023-01-20T16:18:18.474Z,51.92
2023-01-20T16:21:05.739Z,49.70
2023-01-20T16:23:53.242Z,51.40
2023-01-20T16:26:40.672Z,50.48
2023-01-20T16:29:28.213Z,60.20
2023-01-20T16:32:17.824Z,56.45
2023-01-20T16:35:04.714Z,55.70
2023-01-20T16:37:52.696Z,59.45
2023-01-20T16:40:44.003Z,51.95
2023-01-20T16:43:31.182Z,57.50
2023-01-20T16:46:21.464Z,54.23
2023-01-20T16:49:08.753Z,52.05
2023-01-20T16:51:55.814Z,60.67
2023-01-20T16:54:43.327Z,55.78
2023-01-20T16:57:30.647Z,54.77
2023-01-20T17:00:19.108Z,58.60
2023-01-20T17:03:07.217Z,54.93
2023-01-20T17:05:56.273Z,59.95
2023-01-20T17:08:48.072Z,64.32
2023-01-20T17:11:37.237Z,56.65
2023-01-20T17:14:24.354Z,59.25
2023-01-20T17:17:11.366Z,68.28
2023-01-20T17:19:58.595Z,54.67
2023-01-20T17:22:45.647Z,56.45
2023-01-20T17:25:32.932Z,59.08
2023-01-20T17:28:20.352Z,58.28
2023-01-20T17:31:08.259Z,57.88
2023-01-20T17:33:55.808Z,52.88
2023-01-20T17:36:43.258Z,61.85
2023-01-20T17:39:33.184Z,66.85
2023-01-20T17:42:20.718Z,64.75
2023-01-20T17:45:08.529Z,61.60
2023-01-20T17:47:55.888Z,64.20
2023-01-20T17:50:43.298Z,65.00
2023-01-20T17:53:30.616Z,58.70
2023-01-20T17:56:20.104Z,62.43
2023-01-20T17:59:07.384Z,62.80
2023-01-20T18:01:55.356Z,60.12
2023-01-20T18:04:42.380Z,57.25
2023-01-20T18:07:30.050Z,54.83
2023-01-20T18:10:18.164Z,64.07
2023-01-20T18:13:05.365Z,63.33
2023-01-20T18:15:52.726Z,50.70
2023-01-20T18:18:42.661Z,52.38
2023-01-20T18:21:33.610Z,62.25
2023-01-20T18:24:21.073Z,61.50
2023-01-20T18:27:09.667Z,59.53
2023-01-20T18:29:56.816Z,56.48
2023-01-20T18:32:44.908Z,49.10
2023-01-20T18:35:32.330Z,54.30
2023-01-20T18:38:19.898Z,49.67
2023-01-20T18:41:07.097Z,53.33
2023-01-20T18:43:54.425Z,52.93
2023-01-20T18:46:42.014Z,57.00
2023-01-20T18:49:29.092Z,61.10
2023-01-20T18:52:17.916Z,53.52
2023-01-20T18:55:05.681Z,56.30
2023-01-20T18:57:52.903Z,47.03
2023-01-20T19:00:40.141Z,41.40
2023-01-20T19:03:27.757Z,40.05
2023-01-20T19:06:20.238Z,45.55
2023-01-20T19:09:07.994Z,38.83
2023-01-20T19:11:55.104Z,38.50
2023-01-20T19:14:42.164Z,38.08
2023-01-20T19:17:30.543Z,38.25
2023-01-20T19:20:18.436Z,36.93
2023-01-20T19:23:06.017Z,43.68
2023-01-20T19:25:56.367Z,39.48
2023-01-20T19:28:43.398Z,43.68
2023-01-20T19:31:36.644Z,40.73
2023-01-20T19:34:23.873Z,40.50
2023-01-20T19:37:11.529Z,46.77
2023-01-20T19:39:58.877Z,45.63
2023-01-20T19:42:48.008Z,40.90
2023-01-20T19:45:45.352Z,41.88
2023-01-20T19:48:26.349Z,46.77
2023-01-20T19:51:16.050Z,38.60
2023-01-20T19:54:03.463Z,44.03
2023-01-20T19:56:50.871Z,40.58
2023-01-20T19:59:39.835Z,44.23
2023-01-20T20:02:27.448Z,44.00
2023-01-20T20:05:16.187Z,36.88
2023-01-20T20:08:03.647Z,38.75
2023-01-20T20:10:53.486Z,37.73
2023-01-20T20:13:41.392Z,38.63
2023-01-20T20:16:31.925Z,35.10
2023-01-20T20:19:20.834Z,39.13
2023-01-20T20:22:07.954Z,45.65
2023-01-20T20:24:55.402Z,39.18
2023-01-20T20:27:42.674Z,54.08
2023-01-20T20:30:30.563Z,52.70
2023-01-20T20:33:19.425Z,57.15
2023-01-20T20:36:11.263Z,45.20
2023-01-20T20:38:59.370Z,46.05
2023-01-20T20:41:47.117Z,37.60
2023-01-20T20:44:35.684Z,37.63
2023-01-20T20:47:22.857Z,24.30
2023-01-20T20:50:12.279Z,23.40
2023-01-20T20:53:00.237Z,22.55
2023-01-20T20:55:47.746Z,41.20
2023-01-20T20:58:35.496Z,62.43
2023-01-20T21:01:23.401Z,39.67
2023-01-20T21:04:11.532Z,39.65
2023-01-20T21:06:58.770Z,33.95
2023-01-20T21:09:45.886Z,35.80
2023-01-20T21:12:33.198Z,32.17
2023-01-20T21:15:20.228Z,28.55
2023-01-20T21:18:07.330Z,31.20
2023-01-20T21:20:59.143Z,29.00
2023-01-20T21:23:51.085Z,39.78
2023-01-20T21:26:38.634Z,38.85
2023-01-20T21:29:27.442Z,37.53
2023-01-20T21:32:15.719Z,40.25
2023-01-20T21:35:03.269Z,37.88
2023-01-20T21:37:50.757Z,40.63
2023-01-20T21:40:38.071Z,38.85
2023-01-20T21:43:43.353Z,41.33
2023-01-20T21:46:32.998Z,45.75
2023-01-20T21:49:38.374Z,50.40
2023-01-20T21:52:41.301Z,54.35
2023-01-20T21:55:28.867Z,46.33
2023-01-20T21:58:16.091Z,52.38
2023-01-20T22:01:03.357Z,53.42
2023-01-20T22:03:50.770Z,50.03
2023-01-20T22:06:37.833Z,49.45
2023-01-20T22:09:26.086Z,48.87
2023-01-20T22:12:13.592Z,55.55
2023-01-20T22:15:03.262Z,51.58
2023-01-20T22:17:50.778Z,55.03
2023-01-20T22:20:38.074Z,53.08
2023-01-20T22:23:25.415Z,63.10
2023-01-20T22:26:12.970Z,63.10
2023-01-20T22:29:00.427Z,53.85
2023-01-20T22:31:48.261Z,53.73
2023-01-20T22:34:38.472Z,50.50
2023-01-20T22:37:25.871Z,54.27
2023-01-20T22:40:13.293Z,49.27
2023-01-20T22:43:02.114Z,53.95
2023-01-20T22:45:49.189Z,57.33
2023-01-20T22:48:36.920Z,52.00
2023-01-20T22:51:26.979Z,52.85
2023-01-20T22:54:14.391Z,47.55
2023-01-20T22:57:01.765Z,52.15
2023-01-20T22:59:49.797Z,53.65
2023-01-20T23:02:38.495Z,44.45
2023-01-20T23:05:27.043Z,51.30
2023-01-20T23:08:14.352Z,50.73
2023-01-20T23:11:05.350Z,48.98
2023-01-20T23:13:53.425Z,50.30
2023-01-20T23:16:41.458Z,53.58
2023-01-20T23:19:28.730Z,51.42
2023-01-20T23:22:15.813Z,48.42
2023-01-20T23:25:03.509Z,56.77
2023-01-20T23:27:50.908Z,43.83
2023-01-20T23:30:38.190Z,49.25
2023-01-20T23:33:25.304Z,51.30
2023-01-20T23:36:17.826Z,54.42
2023-01-20T23:39:05.288Z,50.60
2023-01-20T23:41:55.285Z,49.75
2023-01-20T23:44:42.680Z,49.50
2023-01-20T23:47:29.696Z,54.83
2023-01-20T23:50:17.274Z,45.52
2023-01-20T23:53:04.126Z,47.17
2023-01-20T23:55:51.632Z,48.92
2023-01-20T23:58:39.536Z,53.30
